°C

Conditions at local time : on    Forecast:

Nearby METAR Reports

EGKA - Shoreham-By-Sea, United Kingdom
Distance from station: ENE 4mi, 6km
Updated: Fri, 18-Oct-2019 7:50pm BST
NOT Current
Nearby showers, Partly cloudy
Nearby showers, Partly cloudy
 Wind from SW
Wind: SW 21 mph , 33 km/h, Gust: 33 mph , 54 km/h
Temperature: 14°C
Dew Point: 9°C
Humidity: 72%
Barometer: 1001 hPa
Summary: Nearby Showers
Clouds: Partly Cloudy
Visibility: 6 miles , 10 km
Cloud details: Few Clouds 549 m
Partly Cloudy 914 m
2019/10/18 18:50 EGKA 181850Z 23018G29KT 9999 VCSH FEW018CB SCT030 14/09 Q1001
EGKK - London/Gatwick A, United Kingdom
Distance from station: NNE 24mi, 39km
Updated: Sat, 19-Oct-2019 2:50am BST
Few Clouds
Few Clouds
 Wind from varies
Wind: varies 3 mph , 6 km/h
Temperature: 10°C
Dew Point: 9°C
Humidity: 94%
Barometer: 999 hPa
Clouds: Few Clouds
Visibility: 6 miles , 10 km
Cloud details: Few Clouds 762 m
2019/10/19 01:50 EGKK 190150Z VRB03KT 9999 FEW025 10/09 Q0999
 
EGLF - Farnborough, United Kingdom
Distance from station: NNW 37mi, 59km
Updated: Sat, 19-Oct-2019 2:50am BST
Clear
Clear
 Wind from S
Wind: S 7 mph , 11 km/h
Temperature: 10°C
Wind Chill: 8°C
Dew Point: 8°C
Humidity: 88%
Barometer: 998 hPa
Clouds: Clear
Visibility: 6 miles , 10 km
2019/10/19 01:50 EGLF 190150Z AUTO 19006KT 9999 NCD 10/08 Q0998
EGVO - Odiham Raf, United Kingdom
Distance from station: NW 38mi, 61km
Updated: Sat, 19-Oct-2019 2:50am BST
Few Clouds
Few Clouds
 Wind from SSW
Wind: SSW 10 mph , 17 km/h
Temperature: 10°C
Wind Chill: 8°C
Dew Point: 9°C
Humidity: 94%
Barometer: 998 hPa
Clouds: Few Clouds
Visibility: 6 miles , 10 km
Cloud details: Few Clouds 1829 m
2019/10/19 01:50 EGVO 190150Z AUTO 20009KT 9999 FEW060/// 10/09 Q0998